createdAt,value
2018-04-25T00:02:04.622Z,12.80
2018-04-25T00:04:32.068Z,12.80
2018-04-25T00:07:00.298Z,12.80
2018-04-25T00:09:27.749Z,12.80
2018-04-25T00:11:55.204Z,12.70
2018-04-25T00:14:22.670Z,12.70
2018-04-25T00:16:50.126Z,12.70
2018-04-25T00:19:17.563Z,12.70
2018-04-25T00:21:45.022Z,12.70
2018-04-25T00:24:12.487Z,12.70
2018-04-25T00:26:39.947Z,12.70
2018-04-25T00:29:07.402Z,12.70
2018-04-25T00:31:34.838Z,12.60
2018-04-25T00:34:02.296Z,12.60
2018-04-25T00:36:29.754Z,12.70
2018-04-25T00:38:57.214Z,12.70
2018-04-25T00:41:24.673Z,12.60
2018-04-25T00:43:52.124Z,12.50
2018-04-25T00:46:19.686Z,12.50
2018-04-25T00:48:47.126Z,12.30
2018-04-25T00:51:14.569Z,12.30
2018-04-25T00:53:42.789Z,12.20
2018-04-25T00:56:10.221Z,12.20
2018-04-25T00:58:37.673Z,12.20
2018-04-25T01:01:05.120Z,12.10
2018-04-25T01:03:33.334Z,12.00
2018-04-25T01:06:00.776Z,12.00
2018-04-25T01:08:28.229Z,11.90
2018-04-25T01:10:55.666Z,11.90
2018-04-25T01:13:23.126Z,11.80
2018-04-25T01:15:51.340Z,11.90
2018-04-25T01:18:18.786Z,11.90
2018-04-25T01:20:46.242Z,11.90
2018-04-25T01:23:26.273Z,11.90
2018-04-25T01:28:57.620Z,12.00
2018-04-25T01:31:46.623Z,11.90
2018-04-25T01:34:14.069Z,12.00
2018-04-25T01:39:44.997Z,12.00
2018-04-25T01:42:23.779Z,11.90
2018-04-25T01:44:53.729Z,11.90
2018-04-25T01:47:24.475Z,12.00
2018-04-25T01:50:04.607Z,11.90
2018-04-25T01:52:43.976Z,11.90
2018-04-25T01:55:24.163Z,11.90
2018-04-25T01:58:03.483Z,11.90
2018-04-25T02:00:42.916Z,11.90
2018-04-25T02:03:09.878Z,11.90
2018-04-25T02:05:37.326Z,11.90
2018-04-25T02:08:04.805Z,11.90
2018-04-25T02:10:32.259Z,11.80
2018-04-25T02:12:59.704Z,11.80
2018-04-25T02:15:27.150Z,11.90
2018-04-25T02:17:54.602Z,11.80
2018-04-25T02:20:22.068Z,11.80
2018-04-25T02:22:49.505Z,11.90
2018-04-25T02:25:16.959Z,11.90
2018-04-25T02:27:44.402Z,11.90
2018-04-25T02:30:12.623Z,11.70
2018-04-25T02:32:40.063Z,11.80
2018-04-25T02:35:07.514Z,11.70
2018-04-25T02:37:34.986Z,11.60
2018-04-25T02:40:02.441Z,11.70
2018-04-25T02:42:29.893Z,11.70
2018-04-25T02:44:57.350Z,11.80
2018-04-25T02:47:24.797Z,11.80
2018-04-25T02:49:52.255Z,11.80
2018-04-25T02:52:19.701Z,11.80
2018-04-25T02:54:47.141Z,11.90
2018-04-25T02:57:15.361Z,11.90
2018-04-25T02:59:42.802Z,11.80
2018-04-25T03:02:10.252Z,11.90
2018-04-25T03:04:37.699Z,11.80
2018-04-25T03:07:05.910Z,11.90
2018-04-25T03:09:33.358Z,11.80
2018-04-25T03:12:00.832Z,11.90
2018-04-25T03:14:28.274Z,11.90
2018-04-25T03:16:55.743Z,11.90
2018-04-25T03:19:23.179Z,11.90
2018-04-25T03:21:51.544Z,12.00
2018-04-25T03:24:18.990Z,12.00
2018-04-25T03:26:47.218Z,12.00
2018-04-25T03:29:14.663Z,12.00
2018-04-25T03:31:42.118Z,12.00
2018-04-25T03:34:09.566Z,12.00
2018-04-25T03:36:37.023Z,12.00
2018-04-25T03:39:04.476Z,12.00
2018-04-25T03:41:31.935Z,12.00
2018-04-25T03:43:59.379Z,12.00
2018-04-25T03:46:26.840Z,12.00
2018-04-25T03:48:54.285Z,12.00
2018-04-25T03:51:22.508Z,12.00
2018-04-25T03:53:49.954Z,12.00
2018-04-25T03:56:17.397Z,12.00
2018-04-25T03:58:44.846Z,12.00
2018-04-25T04:01:12.294Z,12.00
2018-04-25T04:03:39.845Z,11.90
2018-04-25T04:06:07.329Z,11.90
2018-04-25T04:08:34.810Z,11.90
2018-04-25T04:11:02.290Z,11.90
2018-04-25T04:13:29.757Z,11.90
2018-04-25T04:15:57.979Z,11.90
2018-04-25T04:18:25.425Z,11.90
2018-04-25T04:20:52.877Z,11.80
2018-04-25T04:23:20.336Z,11.90
2018-04-25T04:25:47.781Z,11.90
2018-04-25T04:28:15.235Z,11.90
2018-04-25T04:30:42.677Z,11.90
2018-04-25T04:33:10.891Z,12.00
2018-04-25T04:35:38.329Z,12.00
2018-04-25T04:38:05.773Z,12.10
2018-04-25T04:40:33.227Z,12.20
2018-04-25T04:43:01.448Z,12.20
2018-04-25T04:45:28.895Z,12.20
2018-04-25T04:47:56.339Z,12.30
2018-04-25T04:50:23.778Z,12.30
2018-04-25T04:52:51.230Z,12.40
2018-04-25T04:55:19.448Z,12.40
2018-04-25T04:57:46.895Z,12.40
2018-04-25T05:00:14.346Z,12.50
2018-04-25T05:02:41.798Z,12.60
2018-04-25T05:05:09.253Z,12.60
2018-04-25T05:07:36.689Z,12.70
2018-04-25T05:10:04.140Z,12.80
2018-04-25T05:12:32.342Z,12.80
2018-04-25T05:14:59.798Z,12.80
2018-04-25T05:17:27.242Z,12.90
2018-04-25T05:19:54.686Z,13.00
2018-04-25T05:22:22.900Z,13.10
2018-04-25T05:24:50.377Z,13.10
2018-04-25T05:27:17.813Z,13.10
2018-04-25T05:29:45.265Z,13.20
2018-04-25T05:32:12.747Z,13.30
2018-04-25T05:34:40.178Z,13.40
2018-04-25T05:37:07.631Z,13.50
2018-04-25T05:39:35.065Z,13.60
2018-04-25T05:42:02.534Z,13.70
2018-04-25T05:44:29.987Z,13.80
2018-04-25T05:46:57.427Z,13.90
2018-04-25T05:49:25.628Z,14.10
2018-04-25T05:51:53.081Z,14.10
2018-04-25T05:54:20.526Z,14.20
2018-04-25T05:56:47.983Z,14.40
2018-04-25T05:59:15.443Z,14.50
2018-04-25T06:01:42.885Z,14.60
2018-04-25T06:04:11.107Z,14.90
2018-04-25T06:06:38.552Z,14.90
2018-04-25T06:09:05.996Z,15.00
2018-04-25T06:11:33.443Z,15.10
2018-04-25T06:14:00.890Z,15.20
2018-04-25T06:16:29.112Z,15.50
2018-04-25T06:18:56.554Z,15.50
2018-04-25T06:21:24.010Z,15.60
2018-04-25T06:23:51.450Z,15.80
2018-04-25T06:26:18.919Z,15.90
2018-04-25T06:28:46.372Z,16.00
2018-04-25T06:31:13.891Z,16.20
2018-04-25T06:33:42.163Z,16.50
2018-04-25T06:36:10.422Z,16.60
2018-04-25T06:38:37.877Z,16.60
2018-04-25T06:41:05.454Z,16.70
2018-04-25T06:43:33.021Z,16.80
2018-04-25T06:46:01.298Z,17.10
2018-04-25T06:48:29.517Z,17.30
2018-04-25T06:50:56.969Z,17.20
2018-04-25T06:53:24.453Z,17.30
2018-04-25T06:55:51.928Z,17.50
2018-04-25T06:58:19.393Z,17.60
2018-04-25T07:00:46.880Z,17.70
2018-04-25T07:03:15.090Z,18.00
2018-04-25T07:05:42.545Z,17.90
2018-04-25T07:08:10.050Z,18.00
2018-04-25T07:10:37.480Z,18.10
2018-04-25T07:13:04.925Z,18.20
2018-04-25T07:15:32.385Z,18.40
2018-04-25T07:18:00.602Z,18.70
2018-04-25T07:20:28.843Z,18.80
2018-04-25T07:22:56.318Z,18.80
2018-04-25T07:25:23.787Z,18.90
2018-04-25T07:27:52.042Z,19.00
2018-04-25T07:30:19.493Z,19.00
2018-04-25T07:32:46.947Z,19.10
2018-04-25T07:35:14.394Z,19.20
2018-04-25T07:37:41.850Z,19.40
2018-04-25T07:40:09.314Z,19.40
2018-04-25T07:42:36.762Z,19.50
2018-04-25T07:45:04.228Z,19.50
2018-04-25T07:47:31.671Z,19.60
2018-04-25T07:49:59.130Z,19.60
2018-04-25T07:52:26.977Z,19.70
2018-04-25T07:54:54.422Z,19.70
2018-04-25T07:57:21.873Z,19.70
2018-04-25T07:59:49.329Z,19.80
2018-04-25T08:02:16.790Z,19.80
2018-04-25T08:04:44.234Z,20.00
2018-04-25T08:07:12.623Z,20.20
2018-04-25T08:09:40.099Z,20.20
2018-04-25T08:12:19.703Z,20.30
2018-04-25T08:14:59.042Z,20.50
2018-04-25T08:17:39.053Z,20.60
2018-04-25T08:20:19.262Z,20.70
2018-04-25T08:22:46.728Z,20.70
2018-04-25T08:25:14.172Z,20.80
2018-04-25T08:27:42.451Z,20.90
2018-04-25T08:30:09.848Z,20.90
2018-04-25T08:32:37.299Z,21.10
2018-04-25T08:35:04.742Z,21.30
2018-04-25T08:37:32.205Z,21.30
2018-04-25T08:39:59.652Z,21.30
2018-04-25T08:42:27.094Z,21.20
2018-04-25T08:44:54.609Z,21.30
2018-04-25T08:47:22.005Z,21.30
2018-04-25T08:49:49.458Z,21.30
2018-04-25T08:52:17.672Z,21.40
2018-04-25T08:54:45.125Z,21.30
2018-04-25T08:57:12.583Z,21.60
2018-04-25T08:59:40.030Z,21.80
2018-04-25T09:02:07.499Z,21.90
2018-04-25T09:04:34.968Z,21.90
2018-04-25T09:07:02.416Z,22.00
2018-04-25T09:09:29.871Z,22.00
2018-04-25T09:11:57.317Z,22.00
2018-04-25T09:14:24.778Z,22.20
2018-04-25T09:16:52.233Z,22.30
2018-04-25T09:19:19.690Z,22.20
2018-04-25T09:21:47.135Z,22.50
2018-04-25T09:24:14.577Z,22.60
2018-04-25T09:26:42.027Z,22.70
2018-04-25T09:29:10.258Z,23.10
2018-04-25T09:31:37.730Z,23.10
2018-04-25T09:34:05.181Z,23.30
2018-04-25T09:36:32.637Z,23.00
2018-04-25T09:39:00.086Z,22.80
2018-04-25T09:41:27.542Z,22.60
2018-04-25T09:43:54.985Z,22.50
2018-04-25T09:46:22.450Z,22.40
2018-04-25T09:48:49.892Z,22.30
2018-04-25T09:51:17.381Z,22.20
2018-04-25T09:53:44.842Z,22.20
2018-04-25T09:56:12.307Z,22.20
2018-04-25T09:58:39.820Z,22.20
2018-04-25T10:01:07.271Z,22.40
2018-04-25T10:03:34.746Z,22.40
2018-04-25T10:06:03.996Z,22.50
2018-04-25T10:08:32.075Z,22.60
2018-04-25T10:11:02.402Z,22.50
2018-04-25T10:13:29.930Z,22.50
2018-04-25T10:15:57.378Z,22.60
2018-04-25T10:18:24.843Z,22.80
2018-04-25T10:20:52.304Z,23.00
2018-04-25T10:23:19.750Z,23.10
2018-04-25T10:25:47.206Z,23.30
2018-04-25T10:28:14.652Z,23.40
2018-04-25T10:30:42.201Z,23.60
2018-04-25T10:33:09.649Z,23.70
2018-04-25T10:35:37.092Z,23.60
2018-04-25T10:38:04.555Z,23.50
2018-04-25T10:40:32.093Z,23.70
2018-04-25T10:42:59.468Z,23.60
2018-04-25T10:45:26.929Z,23.60
2018-04-25T10:47:54.381Z,23.50
2018-04-25T10:50:21.838Z,23.20
2018-04-25T10:52:49.299Z,22.80
2018-04-25T10:55:16.778Z,22.80
2018-04-25T10:57:44.997Z,23.10
2018-04-25T11:00:13.215Z,23.20
2018-04-25T11:02:40.680Z,23.20
2018-04-25T11:05:08.121Z,23.20
2018-04-25T11:07:35.587Z,23.20
2018-04-25T11:10:03.031Z,23.30
2018-04-25T11:12:30.500Z,23.60
2018-04-25T11:14:57.954Z,23.70
2018-04-25T11:17:25.414Z,23.90
2018-04-25T11:19:52.857Z,23.60
2018-04-25T11:22:20.308Z,23.40
2018-04-25T11:24:47.770Z,23.20
2018-04-25T11:27:15.232Z,23.20
2018-04-25T11:29:42.683Z,23.40
2018-04-25T11:32:10.139Z,23.60
2018-04-25T11:34:37.594Z,23.60
2018-04-25T11:37:05.042Z,23.70
2018-04-25T11:39:32.493Z,23.60
2018-04-25T11:41:59.973Z,23.50
2018-04-25T11:44:27.429Z,23.60
2018-04-25T11:46:54.889Z,23.50
2018-04-25T11:49:22.337Z,23.50
2018-04-25T11:51:49.802Z,23.40
2018-04-25T11:54:17.242Z,23.40
2018-04-25T11:56:44.717Z,23.30
2018-04-25T11:59:12.180Z,23.40
2018-04-25T12:01:39.635Z,23.50
2018-04-25T12:04:07.087Z,23.50
2018-04-25T12:06:34.544Z,23.60
2018-04-25T12:09:02.043Z,23.60
2018-04-25T12:11:29.556Z,23.80
2018-04-25T12:13:57.023Z,23.70
2018-04-25T12:16:24.466Z,23.80
2018-04-25T12:18:51.933Z,23.70
2018-04-25T12:21:19.387Z,23.70
2018-04-25T12:23:46.841Z,23.50
2018-04-25T12:26:14.300Z,23.70
2018-04-25T12:28:41.758Z,23.80
2018-04-25T12:31:09.215Z,23.90
2018-04-25T12:33:36.745Z,23.90
2018-04-25T12:36:04.196Z,24.00
2018-04-25T12:38:32.414Z,23.90
2018-04-25T12:40:59.877Z,23.80
2018-04-25T12:43:27.348Z,24.00
2018-04-25T12:45:54.793Z,24.20
2018-04-25T12:48:22.266Z,24.30
2018-04-25T12:50:49.714Z,24.30
2018-04-25T12:53:17.171Z,24.10
2018-04-25T12:55:44.621Z,24.20
2018-04-25T12:58:12.074Z,24.20
2018-04-25T13:00:40.296Z,24.40
2018-04-25T13:03:08.529Z,24.50
2018-04-25T13:05:36.869Z,24.50
2018-04-25T13:08:04.339Z,24.50
2018-04-25T13:10:31.795Z,24.50
2018-04-25T13:12:59.234Z,24.30
2018-04-25T13:15:26.694Z,24.00
2018-04-25T13:17:54.144Z,23.90
2018-04-25T13:20:21.616Z,24.00
2018-04-25T13:22:49.078Z,24.00
2018-04-25T13:25:16.540Z,24.10
2018-04-25T13:27:43.993Z,24.20
2018-04-25T13:30:11.449Z,24.10
2018-04-25T13:32:38.908Z,24.00
2018-04-25T13:35:06.363Z,23.60
2018-04-25T13:37:33.830Z,23.80
2018-04-25T13:40:01.286Z,23.90
2018-04-25T13:42:28.737Z,24.00
2018-04-25T13:44:56.197Z,24.10
2018-04-25T13:47:23.650Z,24.20
2018-04-25T13:49:51.104Z,24.40
2018-04-25T13:52:18.560Z,24.20
2018-04-25T13:54:46.005Z,24.30
2018-04-25T13:57:13.464Z,24.20
2018-04-25T13:59:40.913Z,24.10
2018-04-25T14:02:08.372Z,24.00
2018-04-25T14:04:35.830Z,24.10
2018-04-25T14:07:03.289Z,24.20
2018-04-25T14:09:30.737Z,24.40
2018-04-25T14:11:58.207Z,24.40
2018-04-25T14:14:25.681Z,24.60
2018-04-25T14:16:53.118Z,24.70
2018-04-25T14:19:20.582Z,24.30
2018-04-25T14:21:48.030Z,23.90
2018-04-25T14:24:15.499Z,23.80
2018-04-25T14:26:42.967Z,23.80
2018-04-25T14:29:10.417Z,23.80
2018-04-25T14:31:37.885Z,24.00
2018-04-25T14:34:05.335Z,24.10
2018-04-25T14:36:32.798Z,24.00
2018-04-25T14:39:00.260Z,24.20
2018-04-25T14:41:27.730Z,24.30
2018-04-25T14:43:55.193Z,24.00
2018-04-25T14:46:22.650Z,23.90
2018-04-25T14:48:50.109Z,23.80
2018-04-25T14:51:17.566Z,23.90
2018-04-25T14:53:45.031Z,23.90
2018-04-25T14:56:12.474Z,23.80
2018-04-25T14:58:39.917Z,23.90
2018-04-25T15:01:07.374Z,23.90
2018-04-25T15:03:34.836Z,24.00
2018-04-25T15:06:02.297Z,24.10
2018-04-25T15:08:29.737Z,24.10
2018-04-25T15:10:57.198Z,23.90
2018-04-25T15:13:24.659Z,23.90
2018-04-25T15:15:52.093Z,23.90
2018-04-25T15:18:19.558Z,24.00
2018-04-25T15:20:47.009Z,24.00
2018-04-25T15:23:14.456Z,23.80
2018-04-25T15:25:41.902Z,23.90
2018-04-25T15:28:10.113Z,24.00
2018-04-25T15:30:37.574Z,23.90
2018-04-25T15:33:05.039Z,24.00
2018-04-25T15:35:32.495Z,23.90
2018-04-25T15:37:59.942Z,23.90
2018-04-25T15:40:27.398Z,23.70
2018-04-25T15:42:54.850Z,23.90
2018-04-25T15:45:22.309Z,24.00
2018-04-25T15:47:49.768Z,23.90
2018-04-25T15:50:17.218Z,24.00
2018-04-25T15:52:44.672Z,23.90
2018-04-25T15:55:12.145Z,23.80
2018-04-25T15:57:40.362Z,23.80
2018-04-25T16:00:08.597Z,24.00
2018-04-25T16:02:36.068Z,23.90
2018-04-25T16:05:03.518Z,23.70
2018-04-25T16:07:30.971Z,23.50
2018-04-25T16:09:58.425Z,23.40
2018-04-25T16:12:25.877Z,23.40
2018-04-25T16:14:53.325Z,23.40
2018-04-25T16:17:20.776Z,23.20
2018-04-25T16:19:48.229Z,23.30
2018-04-25T16:22:15.689Z,23.70
2018-04-25T16:24:43.137Z,23.70
2018-04-25T16:27:10.607Z,23.70
2018-04-25T16:29:38.062Z,23.50
2018-04-25T16:32:05.518Z,23.50
2018-04-25T16:34:32.985Z,23.10
2018-04-25T16:37:00.439Z,23.00
2018-04-25T16:39:27.898Z,22.90
2018-04-25T16:41:55.357Z,22.80
2018-04-25T16:44:22.818Z,22.70
2018-04-25T16:46:50.303Z,22.70
2018-04-25T16:49:17.746Z,22.70
2018-04-25T16:51:45.206Z,22.60
2018-04-25T16:54:12.649Z,22.60
2018-04-25T16:56:40.106Z,22.50
2018-04-25T16:59:07.561Z,22.50
2018-04-25T17:01:35.029Z,22.80
2018-04-25T17:04:02.492Z,22.80
2018-04-25T17:06:29.938Z,22.50
2018-04-25T17:08:57.390Z,23.10
2018-04-25T17:11:24.842Z,23.20
2018-04-25T17:13:52.304Z,23.60
2018-04-25T17:16:19.741Z,24.10
2018-04-25T17:18:47.206Z,24.20
2018-04-25T17:21:14.654Z,23.70
2018-04-25T17:23:42.102Z,23.10
2018-04-25T17:26:09.553Z,22.90
2018-04-25T17:28:37.028Z,22.50
2018-04-25T17:31:04.497Z,22.40
2018-04-25T17:33:31.945Z,22.30
2018-04-25T17:35:59.399Z,22.10
2018-04-25T17:38:26.846Z,22.00
2018-04-25T17:40:54.307Z,21.70
2018-04-25T17:43:21.757Z,21.60
2018-04-25T17:45:49.221Z,21.50
2018-04-25T17:48:16.686Z,21.50
2018-04-25T17:50:44.135Z,21.50
2018-04-25T17:53:11.593Z,21.40
2018-04-25T17:55:39.042Z,21.30
2018-04-25T17:58:06.493Z,21.20
2018-04-25T18:00:33.931Z,20.80
2018-04-25T18:03:02.154Z,20.20
2018-04-25T18:05:29.626Z,20.20
2018-04-25T18:07:57.085Z,20.10
2018-04-25T18:10:24.542Z,19.90
2018-04-25T18:12:51.987Z,19.80
2018-04-25T18:15:19.442Z,19.80
2018-04-25T18:17:46.911Z,19.70
2018-04-25T18:20:14.350Z,19.60
2018-04-25T18:22:41.819Z,19.50
2018-04-25T18:25:09.278Z,19.40
2018-04-25T18:27:36.721Z,19.40
2018-04-25T18:30:04.177Z,19.30
2018-04-25T18:32:31.626Z,19.20
2018-04-25T18:34:59.100Z,19.20
2018-04-25T18:37:26.563Z,19.20
2018-04-25T18:39:54.009Z,19.10
2018-04-25T18:42:21.472Z,19.00
2018-04-25T18:44:49.592Z,19.00
2018-04-25T18:47:17.825Z,18.80
2018-04-25T18:49:45.261Z,18.90
2018-04-25T18:52:12.840Z,18.80
2018-04-25T18:54:40.302Z,18.70
2018-04-25T18:57:07.757Z,18.60
2018-04-25T18:59:35.207Z,18.50
2018-04-25T19:02:02.673Z,18.50
2018-04-25T19:04:30.138Z,18.40
2018-04-25T19:06:57.578Z,18.30
2018-04-25T19:09:25.051Z,18.30
2018-04-25T19:11:52.500Z,18.10
2018-04-25T19:14:19.962Z,18.10
2018-04-25T19:16:47.417Z,18.10
2018-04-25T19:19:14.875Z,18.10
2018-04-25T19:21:42.333Z,18.10
2018-04-25T19:24:09.786Z,18.10
2018-04-25T19:26:37.245Z,18.10
2018-04-25T19:29:04.698Z,18.10
2018-04-25T19:31:32.146Z,18.10
2018-04-25T19:33:59.605Z,18.00
2018-04-25T19:36:27.050Z,18.00
2018-04-25T19:38:54.518Z,18.00
2018-04-25T19:41:21.973Z,18.00
2018-04-25T19:43:49.411Z,18.00
2018-04-25T19:46:16.866Z,17.90
2018-04-25T19:48:44.331Z,17.80
2018-04-25T19:51:11.783Z,17.80
2018-04-25T19:53:39.247Z,17.70
2018-04-25T19:56:06.693Z,17.70
2018-04-25T19:58:34.157Z,17.60
2018-04-25T20:01:01.639Z,17.60
2018-04-25T20:03:29.891Z,17.30
2018-04-25T20:05:57.329Z,17.30
2018-04-25T20:08:24.861Z,17.40
2018-04-25T20:10:52.228Z,17.40
2018-04-25T20:13:20.457Z,17.50
2018-04-25T20:15:47.911Z,17.50
2018-04-25T20:18:15.365Z,17.50
2018-04-25T20:20:42.826Z,17.60
2018-04-25T20:23:10.285Z,17.60
2018-04-25T20:25:37.738Z,17.60
2018-04-25T20:28:05.196Z,17.60
2018-04-25T20:30:32.632Z,17.60
2018-04-25T20:33:00.091Z,17.60
2018-04-25T20:35:27.559Z,17.60
2018-04-25T20:37:55.008Z,17.60
2018-04-25T20:40:22.458Z,17.60
2018-04-25T20:42:49.900Z,17.40
2018-04-25T20:45:17.346Z,17.40
2018-04-25T20:47:44.809Z,17.50
2018-04-25T20:50:13.016Z,17.50
2018-04-25T20:52:40.466Z,17.40
2018-04-25T20:55:07.943Z,17.40
2018-04-25T20:57:35.390Z,17.40
2018-04-25T21:00:02.836Z,17.40
2018-04-25T21:02:30.338Z,17.40
2018-04-25T21:04:57.770Z,17.50
2018-04-25T21:07:25.225Z,17.40
2018-04-25T21:09:52.683Z,17.40
2018-04-25T21:12:20.142Z,17.30
2018-04-25T21:14:47.593Z,17.30
2018-04-25T21:17:15.047Z,17.30
2018-04-25T21:19:43.374Z,17.30
2018-04-25T21:22:11.586Z,17.30
2018-04-25T21:24:39.047Z,17.30
2018-04-25T21:27:06.515Z,17.30
2018-04-25T21:29:33.970Z,17.40
2018-04-25T21:32:01.423Z,17.40
2018-04-25T21:34:28.868Z,17.30
2018-04-25T21:36:56.333Z,17.30
2018-04-25T21:39:23.776Z,17.20
2018-04-25T21:41:51.236Z,17.20
2018-04-25T21:44:18.688Z,17.10
2018-04-25T21:46:46.202Z,16.90
2018-04-25T21:49:13.703Z,16.80
2018-04-25T21:51:41.150Z,16.70
2018-04-25T21:54:08.617Z,16.70
2018-04-25T21:56:36.060Z,16.60
2018-04-25T21:59:03.523Z,16.40
2018-04-25T22:01:30.973Z,16.20
2018-04-25T22:03:58.430Z,16.00
2018-04-25T22:06:25.891Z,15.90
2018-04-25T22:08:53.350Z,15.90
2018-04-25T22:11:20.806Z,15.90
2018-04-25T22:13:48.255Z,16.00
2018-04-25T22:16:15.721Z,16.00
2018-04-25T22:18:43.182Z,16.00
2018-04-25T22:21:10.626Z,16.10
2018-04-25T22:23:38.094Z,16.10
2018-04-25T22:26:05.542Z,16.20
2018-04-25T22:28:32.990Z,16.20
2018-04-25T22:31:01.206Z,16.10
2018-04-25T22:33:28.653Z,16.10
2018-04-25T22:35:56.109Z,15.90
2018-04-25T22:38:23.553Z,15.90
2018-04-25T22:40:51.005Z,15.90
2018-04-25T22:43:18.475Z,15.90
2018-04-25T22:45:45.928Z,15.80
2018-04-25T22:48:13.361Z,15.70
2018-04-25T22:50:41.582Z,15.70
2018-04-25T22:53:09.025Z,15.70
2018-04-25T22:55:36.480Z,15.70
2018-04-25T22:58:03.945Z,15.60
2018-04-25T23:00:31.385Z,15.50
2018-04-25T23:02:58.834Z,15.40
2018-04-25T23:05:26.285Z,15.30
2018-04-25T23:07:53.777Z,15.20
2018-04-25T23:10:21.199Z,15.30
2018-04-25T23:12:48.666Z,15.20
2018-04-25T23:15:16.129Z,15.20
2018-04-25T23:17:43.577Z,15.20
2018-04-25T23:20:11.034Z,15.20
2018-04-25T23:22:38.477Z,15.30
2018-04-25T23:25:06.743Z,15.10
2018-04-25T23:27:34.153Z,15.10
2018-04-25T23:30:01.634Z,15.10
2018-04-25T23:32:29.084Z,15.10
2018-04-25T23:34:56.530Z,15.10
2018-04-25T23:37:23.995Z,15.00
2018-04-25T23:39:51.456Z,15.00
2018-04-25T23:42:18.899Z,15.00
2018-04-25T23:44:46.344Z,15.00
2018-04-25T23:47:13.801Z,15.00
2018-04-25T23:49:41.250Z,15.00
2018-04-25T23:52:08.706Z,15.00
2018-04-25T23:54:36.166Z,14.90
2018-04-25T23:57:03.617Z,14.90
2018-04-25T23:59:31.073Z,14.80
